Time;durP1;ratioP1;P1;durP2;ratioP2;P2;SDS_P1;SDS_P2;PMS_P1;PMS_P2;Temp;Humidity;BMP_temperature;BMP_pressure;BME280_temperature;BME280_humidity;BME280_pressure;Samples;Min_cycle;Max_cycle;Signal;HPM_P1;HPM_P2
2023/09/16 00:01:09;;;;;;;11.60;7.68;;;15.60;99.90;;;;;;5035932;28;20053;-59
2023/09/16 00:03:36;;;;;;;11.63;8.05;;;15.60;99.90;;;;;;5035905;28;20099;-58
2023/09/16 00:06:04;;;;;;;12.43;8.15;;;15.60;99.90;;;;;;5035859;28;20041;-55
2023/09/16 00:08:34;;;;;;;11.43;7.40;;;15.60;99.90;;;;;;5035146;28;20045;-55
2023/09/16 00:11:00;;;;;;;13.70;8.10;;;15.70;99.90;;;;;;5035639;28;20096;-54
2023/09/16 00:13:27;;;;;;;12.13;7.95;;;15.70;99.90;;;;;;5035086;28;20041;-58
2023/09/16 00:15:54;;;;;;;9.95;7.35;;;15.70;99.90;;;;;;5035570;28;20393;-59
2023/09/16 00:18:21;;;;;;;8.35;6.97;;;15.70;99.90;;;;;;5035101;28;20129;-55
2023/09/16 00:20:52;;;;;;;8.52;6.43;;;15.70;99.90;;;;;;5033693;28;20568;-52
2023/09/16 00:23:19;;;;;;;12.35;6.82;;;15.70;99.90;;;;;;5035146;28;20124;-59
2023/09/16 00:25:45;;;;;;;10.27;6.68;;;15.70;99.90;;;;;;5035678;28;20037;-55
2023/09/16 00:28:12;;;;;;;9.82;6.38;;;15.70;99.90;;;;;;5035390;28;20042;-54
2023/09/16 00:30:39;;;;;;;10.20;7.07;;;15.70;99.90;;;;;;5035249;28;20137;-57
2023/09/16 00:33:06;;;;;;;10.73;6.75;;;15.60;99.90;;;;;;5034887;28;20068;-56
2023/09/16 00:35:33;;;;;;;9.50;6.78;;;15.60;99.90;;;;;;5035074;28;20069;-55
2023/09/16 00:38:00;;;;;;;9.95;7.25;;;15.50;99.90;;;;;;5035151;28;20037;-56
2023/09/16 00:40:26;;;;;;;9.85;7.22;;;15.50;99.90;;;;;;5033654;28;20407;-55
2023/09/16 00:42:53;;;;;;;10.45;6.72;;;15.50;99.90;;;;;;5034934;28;20218;-57
2023/09/16 00:45:20;;;;;;;9.15;6.60;;;15.40;99.90;;;;;;5033789;28;20064;-59
2023/09/16 00:47:47;;;;;;;10.20;7.07;;;15.40;99.90;;;;;;5033711;28;20067;-55
2023/09/16 00:50:14;;;;;;;12.65;7.25;;;15.40;99.90;;;;;;5034580;28;20083;-56
2023/09/16 00:52:41;;;;;;;11.68;6.90;;;15.40;99.90;;;;;;5034866;28;20037;-54
2023/09/16 00:55:08;;;;;;;9.95;6.95;;;15.40;99.90;;;;;;5033573;28;20037;-57
2023/09/16 00:57:35;;;;;;;9.55;6.68;;;15.40;99.90;;;;;;5033438;28;20076;-58
2023/09/16 01:00:07;;;;;;;12.38;6.82;;;15.40;99.90;;;;;;5035113;28;20128;-56
2023/09/16 01:02:34;;;;;;;9.88;6.80;;;15.40;99.90;;;;;;5034985;28;20072;-55
2023/09/16 01:05:04;;;;;;;12.38;7.03;;;15.40;99.90;;;;;;5034869;28;20044;-56
2023/09/16 01:07:31;;;;;;;8.95;6.90;;;15.40;99.90;;;;;;5034599;28;20132;-55
2023/09/16 01:09:58;;;;;;;9.82;6.93;;;15.30;99.90;;;;;;5032979;28;20378;-57
2023/09/16 01:12:25;;;;;;;9.98;6.80;;;15.30;99.90;;;;;;5033147;28;20389;-56
2023/09/16 01:14:52;;;;;;;14.25;7.63;;;15.30;99.90;;;;;;5034679;28;20072;-58
2023/09/16 01:17:18;;;;;;;10.32;7.20;;;15.30;99.90;;;;;;5032726;28;20069;-56
2023/09/16 01:19:45;;;;;;;9.05;6.75;;;15.30;99.90;;;;;;5033319;28;20132;-56
2023/09/16 01:22:12;;;;;;;9.57;6.78;;;15.30;99.90;;;;;;5032968;28;20100;-55
2023/09/16 01:24:40;;;;;;;11.65;7.35;;;15.20;99.90;;;;;;5033000;28;20045;-58
2023/09/16 01:27:07;;;;;;;8.07;6.47;;;15.20;99.90;;;;;;5033038;28;20055;-53
2023/09/16 01:29:34;;;;;;;10.00;7.35;;;15.20;99.90;;;;;;5033080;28;20037;-53
2023/09/16 01:32:02;;;;;;;9.82;6.50;;;15.20;99.90;;;;;;5032874;28;20064;-57
2023/09/16 01:34:29;;;;;;;9.75;6.47;;;15.20;99.90;;;;;;5032907;28;20087;-57
2023/09/16 01:36:56;;;;;;;7.85;6.32;;;15.20;99.90;;;;;;5034162;28;20049;-52
2023/09/16 01:39:24;;;;;;;13.23;6.32;;;15.10;99.90;;;;;;5033833;28;20049;-53
2023/09/16 01:41:50;;;;;;;7.47;5.93;;;15.10;99.90;;;;;;5032521;28;20045;-58
2023/09/16 01:44:17;;;;;;;9.68;6.38;;;15.10;99.90;;;;;;5032629;28;20041;-53
2023/09/16 01:46:44;;;;;;;9.88;6.55;;;15.10;99.90;;;;;;5033797;28;20401;-56
2023/09/16 01:49:11;;;;;;;7.85;6.00;;;15.10;99.90;;;;;;5032250;28;20053;-60
2023/09/16 01:51:38;;;;;;;8.73;5.97;;;15.10;99.90;;;;;;5032123;28;20053;-56
2023/09/16 01:54:05;;;;;;;10.65;6.20;;;15.10;99.90;;;;;;5034047;28;20049;-57
2023/09/16 01:56:32;;;;;;;9.18;6.70;;;15.00;99.90;;;;;;5032246;28;20049;-51
2023/09/16 01:58:59;;;;;;;9.13;6.68;;;15.00;99.90;;;;;;5031947;28;20438;-56
2023/09/16 02:01:26;;;;;;;9.38;6.13;;;15.00;99.90;;;;;;5031693;28;20119;-54
2023/09/16 02:03:55;;;;;;;9.60;6.78;;;15.00;99.90;;;;;;5033239;28;20416;-57
2023/09/16 02:06:22;;;;;;;10.88;7.38;;;15.00;99.90;;;;;;5033438;28;20040;-56
2023/09/16 02:08:50;;;;;;;9.95;6.70;;;15.00;99.90;;;;;;5031733;28;20072;-58
2023/09/16 02:11:17;;;;;;;10.85;6.78;;;15.00;99.90;;;;;;5033550;28;20084;-55
2023/09/16 02:13:44;;;;;;;13.18;7.60;;;15.00;99.90;;;;;;5033248;28;20124;-58
2023/09/16 02:16:11;;;;;;;10.27;6.97;;;14.90;99.90;;;;;;5033183;28;20061;-57
2023/09/16 02:18:38;;;;;;;10.02;7.45;;;14.90;99.90;;;;;;5031520;28;20038;-58
2023/09/16 02:21:05;;;;;;;10.68;6.90;;;14.90;99.90;;;;;;5032476;28;20572;-52
2023/09/16 02:23:32;;;;;;;11.02;6.90;;;14.90;99.90;;;;;;5033086;28;20485;-55
2023/09/16 02:25:58;;;;;;;8.30;6.75;;;14.90;99.90;;;;;;5032201;28;20132;-60
2023/09/16 02:28:25;;;;;;;9.57;6.47;;;14.80;99.90;;;;;;5031601;28;20524;-56
2023/09/16 02:30:52;;;;;;;10.00;7.10;;;14.80;99.90;;;;;;5033162;28;20042;-57
2023/09/16 02:33:20;;;;;;;9.68;6.43;;;14.80;99.90;;;;;;5031967;28;20041;-56
2023/09/16 02:35:47;;;;;;;9.27;7.05;;;14.70;99.90;;;;;;5031872;28;20069;-59
2023/09/16 02:38:14;;;;;;;9.07;6.63;;;14.70;99.90;;;;;;5031856;28;20087;-54
2023/09/16 02:40:41;;;;;;;12.38;7.15;;;14.70;99.90;;;;;;5031281;28;20075;-57
2023/09/16 02:43:09;;;;;;;8.55;6.90;;;14.70;99.90;;;;;;5031569;28;20073;-55
2023/09/16 02:45:35;;;;;;;10.65;7.00;;;14.70;99.90;;;;;;5031651;28;20123;-55
2023/09/16 02:48:02;;;;;;;10.27;6.65;;;14.70;99.90;;;;;;5014981;28;20053;-55
2023/09/16 02:50:29;;;;;;;12.25;6.55;;;14.70;99.90;;;;;;5031811;28;20499;-56
2023/09/16 02:52:56;;;;;;;11.10;6.90;;;14.70;99.90;;;;;;5032978;28;20045;-58
2023/09/16 02:55:23;;;;;;;9.95;7.03;;;14.70;99.90;;;;;;5031428;28;20055;-54
2023/09/16 02:57:50;;;;;;;12.38;6.70;;;14.70;99.90;;;;;;5032576;28;20033;-55
2023/09/16 03:00:17;;;;;;;9.32;7.30;;;14.60;99.90;;;;;;5031529;28;20046;-53
2023/09/16 03:02:45;;;;;;;10.55;7.32;;;14.60;99.90;;;;;;5031352;28;20069;-57
2023/09/16 03:05:11;;;;;;;9.40;6.90;;;14.60;99.90;;;;;;5031587;28;20049;-53
2023/09/16 03:07:39;;;;;;;9.02;6.50;;;14.60;99.90;;;;;;5031634;28;20046;-51
2023/09/16 03:10:05;;;;;;;8.88;6.60;;;14.50;99.90;;;;;;5033939;28;20057;-55
2023/09/16 03:12:33;;;;;;;10.23;6.95;;;14.50;99.90;;;;;;5035452;28;20041;-53
2023/09/16 03:15:00;;;;;;;8.70;6.32;;;14.50;99.90;;;;;;5018483;28;20380;-56
2023/09/16 03:17:27;;;;;;;11.38;6.85;;;14.50;99.90;;;;;;5034859;28;20445;-56
2023/09/16 03:19:54;;;;;;;9.10;6.90;;;14.50;99.90;;;;;;5034772;28;20045;-54
2023/09/16 03:22:21;;;;;;;9.65;6.20;;;14.50;99.90;;;;;;5034943;28;20435;-51
2023/09/16 03:24:48;;;;;;;7.50;6.22;;;14.50;99.90;;;;;;5035054;28;20433;-49
2023/09/16 03:27:15;;;;;;;9.93;6.72;;;14.50;99.90;;;;;;5036051;28;20084;-57
2023/09/16 03:29:42;;;;;;;8.73;6.40;;;14.50;99.90;;;;;;5036171;28;20064;-58
2023/09/16 03:32:09;;;;;;;9.55;7.65;;;14.50;99.90;;;;;;5034760;28;20037;-60
2023/09/16 03:34:36;;;;;;;8.57;6.85;;;14.50;99.90;;;;;;5034848;28;20050;-56
2023/09/16 03:37:03;;;;;;;8.38;6.40;;;14.50;99.90;;;;;;5036048;28;20037;-57
2023/09/16 03:39:30;;;;;;;9.18;6.82;;;14.50;99.90;;;;;;5034613;28;20488;-59
2023/09/16 03:41:58;;;;;;;9.80;6.40;;;14.50;99.90;;;;;;5034961;28;20519;-53
2023/09/16 03:44:25;;;;;;;10.55;6.97;;;14.50;99.90;;;;;;5034598;28;20052;-61
2023/09/16 03:46:52;;;;;;;7.97;6.15;;;14.50;99.90;;;;;;5034578;28;20093;-54
2023/09/16 03:49:19;;;;;;;8.98;6.82;;;14.50;99.90;;;;;;5034104;28;20045;-56
2023/09/16 03:51:46;;;;;;;9.52;7.03;;;14.40;99.90;;;;;;5034981;28;20045;-56
2023/09/16 03:54:13;;;;;;;8.50;6.80;;;14.40;99.90;;;;;;5036161;28;20040;-59
2023/09/16 03:56:41;;;;;;;8.65;6.55;;;14.40;99.90;;;;;;5034851;28;20037;-56
2023/09/16 03:59:11;;;;;;;10.55;6.60;;;14.40;99.90;;;;;;5034959;28;20053;-57
2023/09/16 04:01:37;;;;;;;10.88;6.47;;;14.40;99.90;;;;;;5034538;28;20484;-56
2023/09/16 04:04:05;;;;;;;8.98;6.35;;;14.40;99.90;;;;;;5018690;28;20072;-51
2023/09/16 04:06:32;;;;;;;8.95;6.25;;;14.40;99.90;;;;;;5034580;28;20065;-55
2023/09/16 04:09:00;;;;;;;12.45;6.38;;;14.40;99.90;;;;;;5034533;28;20115;-59
2023/09/16 04:11:27;;;;;;;8.45;6.70;;;14.40;99.90;;;;;;5034505;28;20464;-59
2023/09/16 04:13:55;;;;;;;11.95;6.50;;;14.30;99.90;;;;;;5034383;28;20049;-59
2023/09/16 04:16:25;;;;;;;7.60;5.75;;;14.30;99.90;;;;;;5035186;28;20030;-55
2023/09/16 04:18:53;;;;;;;8.90;6.25;;;14.30;99.90;;;;;;5035316;28;20493;-53
2023/09/16 04:21:20;;;;;;;8.20;6.55;;;14.30;99.90;;;;;;5034241;28;20047;-55
2023/09/16 04:23:47;;;;;;;9.48;6.68;;;14.30;99.90;;;;;;5035219;28;20041;-56
2023/09/16 04:26:15;;;;;;;10.20;6.40;;;14.30;99.90;;;;;;5034461;28;20050;-50
2023/09/16 04:28:45;;;;;;;9.18;6.55;;;14.20;99.90;;;;;;5033920;28;20049;-53
2023/09/16 04:31:12;;;;;;;9.07;6.82;;;14.20;99.90;;;;;;5034217;28;20049;-54
2023/09/16 04:33:40;;;;;;;8.20;5.95;;;14.20;99.90;;;;;;5034249;28;20041;-55
2023/09/16 04:36:09;;;;;;;11.57;6.47;;;14.20;99.90;;;;;;5033615;28;20041;-57
2023/09/16 04:38:37;;;;;;;9.48;5.90;;;14.20;99.90;;;;;;5033983;28;20053;-55
2023/09/16 04:41:05;;;;;;;7.68;5.95;;;14.30;99.90;;;;;;5033945;28;20045;-57
2023/09/16 04:43:32;;;;;;;8.60;6.43;;;14.30;99.90;;;;;;5048544;28;20049;-56
2023/09/16 04:46:00;;;;;;;10.07;6.03;;;14.30;99.90;;;;;;5052781;28;20075;-55
2023/09/16 04:48:38;;;;;;;9.75;6.38;;;14.20;99.90;;;;;;5051663;28;20140;-57
2023/09/16 04:51:05;;;;;;;8.75;6.50;;;14.20;99.90;;;;;;5052644;28;20044;-56
2023/09/16 04:53:33;;;;;;;9.40;6.60;;;14.20;99.90;;;;;;5054904;28;20052;-53
2023/09/16 04:56:00;;;;;;;11.40;7.18;;;14.20;99.90;;;;;;5053528;28;20128;-52
2023/09/16 04:58:29;;;;;;;11.88;6.40;;;14.20;99.90;;;;;;5053364;28;20037;-52
2023/09/16 05:00:57;;;;;;;10.70;7.03;;;14.20;99.90;;;;;;5053247;28;20412;-54
2023/09/16 05:03:24;;;;;;;8.05;6.15;;;14.20;99.90;;;;;;5053211;28;20110;-57
2023/09/16 05:05:51;;;;;;;9.88;6.43;;;14.10;99.90;;;;;;5053398;28;20103;-57
2023/09/16 05:08:18;;;;;;;9.35;6.45;;;14.10;99.90;;;;;;5053012;28;20144;-54
2023/09/16 05:10:45;;;;;;;8.73;6.22;;;14.10;99.90;;;;;;5052652;28;20045;-56
2023/09/16 05:13:12;;;;;;;9.07;6.38;;;14.10;99.90;;;;;;5052865;28;20069;-56
2023/09/16 05:15:39;;;;;;;9.85;6.20;;;14.10;99.90;;;;;;5053634;28;20056;-58
2023/09/16 05:18:06;;;;;;;9.88;6.85;;;14.10;99.90;;;;;;5036325;28;20458;-58
2023/09/16 05:20:34;;;;;;;11.60;6.85;;;14.10;99.90;;;;;;5053076;28;20041;-58
2023/09/16 05:23:01;;;;;;;9.68;6.80;;;14.00;99.90;;;;;;5036529;28;20049;-57
2023/09/16 05:25:28;;;;;;;9.85;6.70;;;14.10;99.90;;;;;;5052941;28;20041;-55
2023/09/16 05:27:55;;;;;;;9.80;6.55;;;14.00;99.90;;;;;;5053776;28;20060;-53
2023/09/16 05:30:22;;;;;;;10.40;6.80;;;14.10;99.90;;;;;;5054456;28;20044;-55
2023/09/16 05:32:49;;;;;;;9.55;7.00;;;14.10;99.90;;;;;;5051927;28;20053;-56
2023/09/16 05:35:16;;;;;;;9.38;6.30;;;14.10;99.90;;;;;;5052986;28;20492;-53
2023/09/16 05:37:43;;;;;;;10.77;6.88;;;14.10;99.90;;;;;;5052732;28;20488;-56
2023/09/16 05:40:11;;;;;;;11.27;6.43;;;14.10;99.90;;;;;;5052610;28;20443;-56
2023/09/16 05:42:38;;;;;;;9.35;6.85;;;14.10;99.90;;;;;;5052334;28;20044;-57
2023/09/16 05:45:05;;;;;;;9.93;6.75;;;14.10;99.90;;;;;;5052116;28;20045;-60
2023/09/16 05:47:32;;;;;;;10.43;6.85;;;14.10;99.90;;;;;;5053474;28;20057;-55
2023/09/16 05:49:59;;;;;;;9.43;6.47;;;14.10;99.90;;;;;;5052902;28;20069;-58
2023/09/16 05:52:27;;;;;;;9.68;6.78;;;14.10;99.90;;;;;;5052622;28;20041;-58
2023/09/16 05:54:54;;;;;;;8.63;6.90;;;14.10;99.90;;;;;;5053609;28;20124;-57
2023/09/16 05:57:21;;;;;;;9.07;6.90;;;14.10;99.90;;;;;;5053270;28;20041;-58
2023/09/16 05:59:49;;;;;;;7.75;6.13;;;14.10;99.90;;;;;;5052694;28;20435;-58
2023/09/16 06:02:17;;;;;;;9.05;6.60;;;14.10;99.90;;;;;;5052311;28;20041;-57
2023/09/16 06:04:44;;;;;;;7.55;5.80;;;14.10;99.90;;;;;;5052314;28;20135;-59
2023/09/16 06:07:10;;;;;;;8.07;6.30;;;14.10;99.90;;;;;;5051554;28;20080;-52
2023/09/16 06:09:37;;;;;;;10.10;6.38;;;14.10;99.90;;;;;;5052003;28;20041;-56
2023/09/16 06:12:04;;;;;;;6.90;6.20;;;14.10;99.90;;;;;;5053283;28;20124;-57
2023/09/16 06:14:31;;;;;;;10.65;6.88;;;14.10;99.90;;;;;;5053451;28;20076;-57
2023/09/16 06:16:58;;;;;;;10.25;6.18;;;14.10;99.90;;;;;;5051896;28;20045;-53
2023/09/16 06:19:25;;;;;;;7.43;6.47;;;14.10;99.90;;;;;;5052177;28;20037;-58
2023/09/16 06:21:52;;;;;;;7.13;6.25;;;14.20;99.90;;;;;;5053674;28;20349;-55
2023/09/16 06:24:19;;;;;;;8.25;6.55;;;14.20;99.90;;;;;;5052166;28;20056;-55
2023/09/16 06:26:48;;;;;;;8.43;5.95;;;14.20;99.90;;;;;;5051725;28;20083;-55
2023/09/16 06:29:15;;;;;;;7.45;6.65;;;14.20;99.90;;;;;;5053279;28;20083;-57
2023/09/16 06:31:42;;;;;;;10.10;6.97;;;14.30;99.90;;;;;;5051359;28;20484;-54
2023/09/16 06:34:09;;;;;;;7.57;6.78;;;14.30;99.90;;;;;;5051590;28;20123;-53
2023/09/16 06:36:39;;;;;;;8.32;6.25;;;14.40;99.90;;;;;;5052111;28;20041;-57
2023/09/16 06:39:07;;;;;;;7.82;6.53;;;14.40;99.90;;;;;;5051944;28;20053;-54
2023/09/16 06:41:34;;;;;;;9.30;6.90;;;14.40;99.90;;;;;;5051570;28;20076;-54
2023/09/16 06:44:10;;;;;;;9.32;6.85;;;14.50;99.90;;;;;;5036659;28;20053;-50
2023/09/16 06:46:40;;;;;;;11.02;6.72;;;14.50;99.90;;;;;;5052254;28;20045;-56
2023/09/16 06:49:07;;;;;;;9.77;7.20;;;14.50;99.90;;;;;;5053113;28;20124;-56
2023/09/16 06:51:34;;;;;;;11.48;8.13;;;14.50;99.90;;;;;;5053208;28;20500;-53
2023/09/16 06:54:01;;;;;;;12.68;7.30;;;14.60;99.90;;;;;;5052713;28;20029;-54
2023/09/16 06:56:29;;;;;;;9.82;6.70;;;14.60;99.90;;;;;;5053210;28;20114;-58
2023/09/16 06:58:56;;;;;;;7.82;6.93;;;14.60;99.90;;;;;;5051520;28;20424;-55
2023/09/16 07:01:23;;;;;;;8.73;6.93;;;14.70;99.90;;;;;;5052788;28;20369;-58
2023/09/16 07:03:50;;;;;;;12.43;8.15;;;14.80;99.90;;;;;;5052555;28;20045;-57
2023/09/16 07:06:17;;;;;;;11.85;8.75;;;14.80;99.90;;;;;;5053071;28;20116;-53
2023/09/16 07:08:44;;;;;;;15.32;9.63;;;14.90;99.90;;;;;;5052673;28;20102;-56
2023/09/16 07:11:13;;;;;;;14.52;9.55;;;14.90;99.90;;;;;;5052686;28;20067;-53
2023/09/16 07:13:40;;;;;;;11.43;8.77;;;15.00;99.90;;;;;;5052904;28;20045;-55
2023/09/16 07:16:06;;;;;;;12.45;10.90;;;15.10;99.90;;;;;;5052866;28;20049;-55
2023/09/16 07:18:38;;;;;;;15.05;11.57;;;15.20;99.90;;;;;;5052762;28;20399;-55
2023/09/16 07:21:06;;;;;;;18.95;12.45;;;15.20;99.90;;;;;;5051404;28;20059;-56
2023/09/16 07:23:33;;;;;;;21.73;16.27;;;15.40;99.90;;;;;;5052623;28;20041;-58
2023/09/16 07:26:00;;;;;;;21.08;15.90;;;15.40;99.90;;;;;;5053127;28;20069;-57
2023/09/16 07:28:27;;;;;;;22.00;17.30;;;15.50;99.90;;;;;;5052490;28;20116;-57
2023/09/16 07:30:55;;;;;;;25.33;16.73;;;15.60;99.90;;;;;;5052676;28;20434;-55
2023/09/16 07:33:22;;;;;;;20.42;17.35;;;15.70;99.90;;;;;;5051169;28;20051;-55
2023/09/16 07:35:51;;;;;;;23.13;16.60;;;15.80;99.90;;;;;;5052869;28;20095;-55
2023/09/16 07:38:18;;;;;;;22.27;17.67;;;15.90;99.90;;;;;;5052004;28;20045;-55
2023/09/16 07:40:45;;;;;;;23.55;18.30;;;16.00;99.90;;;;;;5052421;28;20052;-57
2023/09/16 07:43:12;;;;;;;25.98;18.60;;;16.00;99.90;;;;;;5051031;28;20381;-53
2023/09/16 07:45:39;;;;;;;26.85;19.90;;;16.10;99.90;;;;;;5053148;28;20045;-54
2023/09/16 07:48:09;;;;;;;24.70;19.67;;;16.10;99.90;;;;;;5051337;28;20526;-55
2023/09/16 07:50:36;;;;;;;26.77;20.90;;;16.20;99.90;;;;;;5052387;28;20047;-57
2023/09/16 07:53:03;;;;;;;28.90;22.45;;;16.30;99.90;;;;;;5052288;28;20039;-56
2023/09/16 07:55:30;;;;;;;33.03;23.67;;;16.30;99.90;;;;;;5053464;28;20037;-56
2023/09/16 07:57:57;;;;;;;31.05;23.00;;;16.40;99.90;;;;;;5055912;28;20114;-56
2023/09/16 08:00:26;;;;;;;31.42;23.48;;;16.40;99.90;;;;;;5054806;28;20049;-50
2023/09/16 08:02:53;;;;;;;36.97;25.35;;;16.50;99.90;;;;;;5055552;28;20044;-56
2023/09/16 08:05:20;;;;;;;34.47;24.55;;;16.50;99.90;;;;;;5055751;28;20043;-56
2023/09/16 08:07:47;;;;;;;31.38;24.42;;;16.70;99.90;;;;;;5054063;28;20411;-57
2023/09/16 08:10:13;;;;;;;33.22;25.00;;;16.80;99.90;;;;;;5055907;28;20395;-50
2023/09/16 08:12:40;;;;;;;33.90;23.88;;;16.90;99.90;;;;;;5055342;28;20037;-56
2023/09/16 08:15:07;;;;;;;34.78;24.30;;;16.90;99.90;;;;;;5054759;28;20112;-55
2023/09/16 08:17:35;;;;;;;35.35;24.55;;;17.00;99.90;;;;;;5055604;28;20402;-55
2023/09/16 08:20:02;;;;;;;30.17;23.33;;;17.10;99.90;;;;;;5055899;28;20037;-57
2023/09/16 08:22:29;;;;;;;33.78;24.55;;;17.20;99.90;;;;;;5055234;28;20041;-59
2023/09/16 08:24:56;;;;;;;30.98;24.13;;;17.30;99.90;;;;;;5054419;28;20049;-59
2023/09/16 08:27:22;;;;;;;33.38;22.98;;;17.40;99.90;;;;;;5055582;28;20432;-54
2023/09/16 08:29:49;;;;;;;29.70;22.85;;;17.50;99.90;;;;;;5055801;28;20049;-56
2023/09/16 08:32:16;;;;;;;31.10;22.45;;;17.50;99.90;;;;;;5030429;28;20041;-54
2023/09/16 08:34:43;;;;;;;30.13;22.15;;;17.60;99.90;;;;;;5031325;28;20461;-51
2023/09/16 08:37:13;;;;;;;25.83;21.58;;;17.60;99.90;;;;;;5017524;28;20038;-54
2023/09/16 08:39:40;;;;;;;28.20;21.48;;;17.70;99.90;;;;;;5015892;28;20062;-60
2023/09/16 08:42:07;;;;;;;27.35;20.05;;;17.80;99.90;;;;;;5024876;28;20060;-57
2023/09/16 08:44:34;;;;;;;25.15;19.65;;;17.80;99.90;;;;;;5035572;28;20124;-58
2023/09/16 08:47:01;;;;;;;27.00;18.17;;;17.90;99.90;;;;;;5035283;28;20098;-58
2023/09/16 08:49:28;;;;;;;23.85;16.90;;;18.00;99.90;;;;;;5034909;28;20050;-59
2023/09/16 08:51:54;;;;;;;20.33;16.65;;;18.10;99.90;;;;;;5034644;28;20396;-59
2023/09/16 08:54:21;;;;;;;23.50;16.00;;;18.30;99.90;;;;;;5033812;28;20112;-55
2023/09/16 08:56:48;;;;;;;23.10;15.43;;;18.30;99.90;;;;;;5034766;28;20041;-58
2023/09/16 08:59:15;;;;;;;19.25;14.45;;;18.50;99.90;;;;;;5034611;28;20104;-60
2023/09/16 09:01:42;;;;;;;18.80;14.07;;;18.60;99.90;;;;;;5034815;28;20082;-58
2023/09/16 09:04:09;;;;;;;19.83;14.52;;;18.60;99.90;;;;;;5034774;28;20107;-57
2023/09/16 09:06:35;;;;;;;16.92;13.23;;;18.70;99.90;;;;;;5035485;28;20033;-63
2023/09/16 09:09:06;;;;;;;17.45;12.68;;;18.80;99.90;;;;;;5034755;28;20107;-60
2023/09/16 09:11:33;;;;;;;14.40;11.35;;;18.80;99.90;;;;;;5034950;28;20083;-57
2023/09/16 09:14:00;;;;;;;18.70;11.40;;;19.00;99.90;;;;;;5034594;28;20065;-53
2023/09/16 09:16:27;;;;;;;14.23;10.02;;;19.00;99.90;;;;;;5034071;28;20235;-56
2023/09/16 09:18:54;;;;;;;15.27;10.32;;;19.10;99.90;;;;;;5034451;28;20041;-59
2023/09/16 09:21:21;;;;;;;16.17;10.32;;;19.10;99.90;;;;;;5034537;28;20439;-56
2023/09/16 09:23:48;;;;;;;12.55;10.25;;;19.10;99.90;;;;;;5034434;28;20045;-59
2023/09/16 09:26:15;;;;;;;13.27;9.40;;;19.20;99.90;;;;;;5034426;28;20042;-59
2023/09/16 09:28:42;;;;;;;13.85;9.10;;;19.30;99.90;;;;;;5034187;28;20442;-59
2023/09/16 09:31:08;;;;;;;13.13;9.55;;;19.40;99.90;;;;;;5023115;28;20056;-58
2023/09/16 09:33:35;;;;;;;11.57;8.60;;;19.40;99.90;;;;;;5024815;28;20116;-54
2023/09/16 09:36:02;;;;;;;15.07;9.60;;;19.50;99.90;;;;;;5022221;28;20042;-59
2023/09/16 09:38:29;;;;;;;14.73;8.60;;;19.70;99.90;;;;;;5023530;28;20037;-52
2023/09/16 09:40:56;;;;;;;14.95;10.45;;;19.70;99.90;;;;;;5031443;28;20117;-57
2023/09/16 09:43:23;;;;;;;12.55;8.48;;;19.80;99.90;;;;;;5034119;28;20445;-58
2023/09/16 09:45:49;;;;;;;14.32;9.27;;;19.80;99.90;;;;;;5034131;28;20076;-56
2023/09/16 09:48:16;;;;;;;17.83;10.48;;;19.90;99.90;;;;;;5033303;28;20137;-59
2023/09/16 09:50:43;;;;;;;15.90;10.30;;;19.90;99.90;;;;;;5033883;28;20107;-59
2023/09/16 09:53:10;;;;;;;13.82;9.68;;;20.00;99.90;;;;;;5033649;28;20092;-59
2023/09/16 09:55:37;;;;;;;11.90;8.70;;;20.00;99.90;;;;;;5033618;28;20041;-57
2023/09/16 09:58:03;;;;;;;12.63;8.85;;;20.00;99.90;;;;;;5034008;28;20547;-59
2023/09/16 10:00:30;;;;;;;13.13;8.90;;;20.10;99.90;;;;;;5033719;28;20045;-56
2023/09/16 10:03:00;;;;;;;11.30;7.43;;;20.20;99.90;;;;;;5033632;28;20045;-56
2023/09/16 10:05:27;;;;;;;10.93;6.55;;;20.20;99.90;;;;;;5032808;28;20079;-59
2023/09/16 10:07:55;;;;;;;11.75;7.80;;;20.40;99.90;;;;;;5031907;28;20099;-56
2023/09/16 10:10:25;;;;;;;15.18;7.50;;;20.50;99.90;;;;;;5033110;28;20090;-60
2023/09/16 10:12:51;;;;;;;14.65;8.55;;;20.60;99.90;;;;;;5033418;28;20046;-59
2023/09/16 10:15:18;;;;;;;11.40;7.65;;;20.70;99.90;;;;;;5032743;28;20041;-59
2023/09/16 10:17:45;;;;;;;11.45;5.97;;;20.70;99.90;;;;;;5032426;28;20034;-59
2023/09/16 10:20:13;;;;;;;13.55;7.97;;;20.80;99.90;;;;;;5032326;28;20045;-57
2023/09/16 10:22:40;;;;;;;13.10;7.80;;;20.80;99.90;;;;;;5032987;28;20068;-57
2023/09/16 10:25:07;;;;;;;11.55;6.78;;;20.90;99.90;;;;;;5032947;28;20045;-57
2023/09/16 10:27:34;;;;;;;14.27;7.50;;;20.90;99.90;;;;;;5032250;28;20477;-55
2023/09/16 10:30:01;;;;;;;13.70;7.38;;;20.90;99.90;;;;;;5032920;28;20049;-57
2023/09/16 10:32:28;;;;;;;11.95;8.05;;;21.00;99.90;;;;;;5032605;28;20038;-54
2023/09/16 10:34:55;;;;;;;15.77;8.98;;;21.10;99.90;;;;;;5031478;28;20087;-51
2023/09/16 10:37:22;;;;;;;12.45;8.63;;;21.10;99.90;;;;;;5032652;28;20038;-53
2023/09/16 10:39:52;;;;;;;9.77;6.80;;;21.20;99.90;;;;;;5032740;28;20045;-52
2023/09/16 10:42:19;;;;;;;8.90;5.80;;;21.20;99.90;;;;;;5032500;28;20126;-53
2023/09/16 10:44:46;;;;;;;10.43;6.55;;;21.30;99.90;;;;;;5032077;28;20046;-54
2023/09/16 10:47:13;;;;;;;15.60;8.18;;;21.30;99.90;;;;;;5032049;28;20060;-56
2023/09/16 10:49:40;;;;;;;16.67;7.78;;;21.40;99.90;;;;;;5032654;28;20503;-57
2023/09/16 10:52:07;;;;;;;11.82;6.88;;;21.40;99.90;;;;;;5031680;28;20051;-54
2023/09/16 10:54:34;;;;;;;12.25;6.63;;;21.50;99.90;;;;;;5032703;28;20033;-56
2023/09/16 10:57:01;;;;;;;12.30;5.55;;;21.60;99.90;;;;;;5031832;28;20040;-59
2023/09/16 10:59:28;;;;;;;6.72;5.10;;;21.60;99.90;;;;;;5025983;28;20042;-53
2023/09/16 11:01:55;;;;;;;8.15;5.70;;;21.80;99.90;;;;;;5026098;28;20074;-56
2023/09/16 11:04:23;;;;;;;10.15;5.90;;;21.80;99.90;;;;;;5026316;28;20049;-58
2023/09/16 11:06:54;;;;;;;8.07;5.28;;;21.80;99.90;;;;;;4996435;28;20398;-58
2023/09/16 11:09:21;;;;;;;7.78;5.22;;;21.80;99.90;;;;;;5032626;28;20124;-57
2023/09/16 11:11:48;;;;;;;16.63;5.30;;;21.90;99.90;;;;;;5032176;28;20374;-57
2023/09/16 11:14:14;;;;;;;8.05;4.95;;;22.00;99.90;;;;;;5031548;28;20041;-56
2023/09/16 11:16:41;;;;;;;9.23;3.65;;;22.10;99.90;;;;;;5032182;28;20084;-57
2023/09/16 11:19:08;;;;;;;7.38;4.57;;;22.20;99.90;;;;;;5032080;28;20038;-55
2023/09/16 11:21:35;;;;;;;7.50;4.07;;;22.20;99.90;;;;;;5032625;28;20041;-57
2023/09/16 11:24:02;;;;;;;8.05;4.47;;;22.20;99.90;;;;;;5026257;28;20041;-56
2023/09/16 11:26:29;;;;;;;6.93;4.10;;;22.30;99.90;;;;;;5025438;28;20045;-53
2023/09/16 11:28:55;;;;;;;9.82;3.72;;;22.30;99.90;;;;;;5026141;28;20042;-59
2023/09/16 11:31:22;;;;;;;9.13;3.58;;;22.40;99.90;;;;;;5024539;28;20041;-56
2023/09/16 11:33:49;;;;;;;10.20;3.58;;;22.40;99.90;;;;;;5035539;28;20117;-54
2023/09/16 11:36:16;;;;;;;9.25;3.70;;;22.40;99.90;;;;;;5034794;28;20082;-53
2023/09/16 11:38:43;;;;;;;6.53;3.58;;;22.50;99.90;;;;;;5036319;28;20037;-54
2023/09/16 11:41:10;;;;;;;8.85;4.32;;;22.60;99.90;;;;;;5035805;28;20053;-57
2023/09/16 11:43:37;;;;;;;7.53;3.83;;;22.70;99.90;;;;;;5035261;28;20045;-55
2023/09/16 11:46:04;;;;;;;5.55;3.72;;;22.80;99.90;;;;;;5035802;28;20072;-55
2023/09/16 11:48:31;;;;;;;6.13;3.33;;;22.80;99.90;;;;;;5035517;28;20054;-55
2023/09/16 11:51:13;;;;;;;6.03;3.72;;;22.90;99.90;;;;;;5035492;28;20033;-58
2023/09/16 11:53:40;;;;;;;6.43;2.90;;;23.10;99.80;;;;;;5035236;28;20071;-56
2023/09/16 11:56:07;;;;;;;4.38;2.83;;;23.10;98.50;;;;;;5030847;28;20444;-51
2023/09/16 11:58:33;;;;;;;6.65;3.25;;;23.20;99.30;;;;;;5026442;28;20041;-58
2023/09/16 12:01:00;;;;;;;6.03;3.17;;;23.20;99.40;;;;;;5023354;28;20044;-55
2023/09/16 12:03:27;;;;;;;8.18;2.70;;;23.30;98.70;;;;;;5033422;28;20113;-55
2023/09/16 12:05:55;;;;;;;5.75;2.65;;;23.50;98.10;;;;;;5035652;28;20346;-61
2023/09/16 12:08:22;;;;;;;4.03;2.55;;;23.60;97.60;;;;;;5035203;28;20037;-53
2023/09/16 12:10:49;;;;;;;4.20;2.50;;;23.60;98.20;;;;;;5035791;28;20465;-54
2023/09/16 12:13:16;;;;;;;4.68;2.60;;;23.80;97.60;;;;;;5035224;28;20068;-56
2023/09/16 12:15:43;;;;;;;4.95;3.25;;;23.90;97.10;;;;;;5035550;28;20087;-54
2023/09/16 12:18:10;;;;;;;3.92;2.20;;;24.00;97.30;;;;;;5035167;28;20096;-59
2023/09/16 12:20:36;;;;;;;6.13;2.60;;;24.00;97.00;;;;;;5035511;28;20045;-53
2023/09/16 12:23:03;;;;;;;6.68;2.20;;;24.10;97.00;;;;;;5033370;28;20041;-55
2023/09/16 12:25:33;;;;;;;5.93;2.30;;;24.10;96.80;;;;;;5034063;28;20045;-58
2023/09/16 12:28:00;;;;;;;4.28;2.45;;;24.10;96.90;;;;;;5033699;28;20041;-54
2023/09/16 12:30:27;;;;;;;6.22;2.13;;;24.10;96.80;;;;;;5033348;28;20507;-54
2023/09/16 12:32:54;;;;;;;4.20;2.42;;;24.00;96.60;;;;;;5034213;28;20037;-54
2023/09/16 12:35:21;;;;;;;8.00;2.50;;;24.10;97.00;;;;;;5033871;28;20639;-56
2023/09/16 12:37:48;;;;;;;5.97;2.55;;;24.20;97.30;;;;;;5034296;28;20046;-55
2023/09/16 12:40:14;;;;;;;6.20;2.78;;;24.20;96.90;;;;;;5035148;28;20068;-56